Logo AVAMET
Benvolgut visitant, si us plau, ingressa Recuperar contrasenya

Vinalesa

Dades diàries. Acumulats / Últims 30 dies disponibles

Data Temperatura (°C) Humitat rel. (%) Pressió rel. (hPa) Vent (km/h) Precipitació
Mínima Mitjana Màxima Amplitud
tèrmica
Mínima Mitjana Màxima Mínima Mitjana Màxima Predom. Mitjana Ràfega
màxima
Total
(mm)
Índex-n
Mínima Mitjana Màxima Mínima Mitjana Màxima n
0 a 1
P0 max
mm 5'
Dades mensuals acumulades fins l'últim dia disponible
05/2019 8,1 13,4 19,8 17,8 18,2 22,2 32,2 24,1 27 68 94 1.001 1.014 1.024   5,2 45,1 18,2
Dades anuals acumulades fins l'últim dia disponible
2019 -0,1 8,4 19,8 13,4 12,3 19,0 32,2 32,3 15 64 97 992 1.018 1.035   4,8 64,4 102,6
Últims 30 dies disponibles
22-05-2019 12,7     17,2     21,4 8,7 57 77 90 1.016 1.017 1.018 SSO 3,3 20,9 0,0
21-05-2019 14,7     17,2     21,8 7,1 65 76 87 1.013 1.015 1.018 W 4,0 25,7 9,2
20-05-2019 12,9     17,6     21,6 8,7 39 60 78 1.011 1.012 1.014 W 5,1 29,0 0,0
19-05-2019 11,9     17,3     24,6 12,7 27 59 86 1.008 1.010 1.012 ENE 2,7 35,4 0,0
18-05-2019 12,0     15,8     18,6 6,6 50 62 80 1.008 1.009 1.011 W 2,1 20,9 1,6
17-05-2019 13,6     19,0     23,2 9,6 33 52 86 1.001 1.004 1.009 SE 9,0 43,5 0,0
16-05-2019 15,9     18,0     21,3 5,4 55 72 83 1.005 1.011 1.015 W 4,8 27,4 0,0
15-05-2019 13,4     17,9     21,6 8,2 63 75 81 1.011 1.012 1.015 WSW 7,9 38,6 0,0
14-05-2019 12,9     18,3     23,7 10,8 35 66 87 1.013 1.018 1.022 NW 4,8 27,4 0,0
13-05-2019 14,9     18,3     22,3 7,4 39 72 90 1.019 1.020 1.021 WSW 4,8 22,5 0,0
12-05-2019 13,6     17,9     21,3 7,7 40 69 86 1.019 1.022 1.024 W 2,9 24,1 0,0
11-05-2019 16,5     19,9     23,4 6,9 56 73 87 1.014 1.018 1.023 W 5,3 27,4 0,0
10-05-2019 19,8     25,1     32,2 12,4 29 52 73 1.010 1.012 1.013 ENE 10,5 35,4 0,0
09-05-2019 19,0     23,2     29,5 10,5 27 46 58 1.009 1.011 1.013 ENE 11,6 37,0 0,0
08-05-2019 14,7     21,4     28,2 13,5 37 63 94 1.008 1.011 1.014 ENE 10,6 45,1 0,0
07-05-2019 11,2     16,2     20,9 9,7 70 81 90 1.013 1.016 1.019 WSW 4,7 22,5 0,0
06-05-2019 9,6     14,6     18,2 8,6 52 73 85 1.017 1.018 1.020 W 3,9 24,1 0,0
05-05-2019 11,9     15,4     18,6 6,7 27 59 84 1.012 1.015 1.017 W 4,7 25,7 0,0
04-05-2019 8,1     14,4     19,9 11,8 41 69 90 1.010 1.012 1.013 ENE 3,9 25,7 0,0
03-05-2019 10,2     14,0     18,5 8,3 67 81 90 1.010 1.012 1.015 W 3,4 27,4 0,4
02-05-2019 13,9     16,2     19,5 5,6 62 83 94 1.014 1.015 1.016 W 2,4 20,9 3,8
01-05-2019 12,3     15,6     18,9 6,6 63 83 92 1.013 1.015 1.017 W 2,9 22,5 3,2
30-04-2019 11,7     15,6     19,3 7,6 66 81 91 1.016 1.017 1.019 SSO 3,7 24,1 0,0
29-04-2019 10,7     15,1     18,6 7,9 67 80 90 1.017 1.019 1.021 W 2,9 20,9 0,0
28-04-2019 11,1     15,4     19,5 8,4 52 74 89 1.019 1.022 1.024 W 4,0 27,4 0,0
27-04-2019 10,8     16,1     20,6 9,8 37 61 87 1.023 1.024 1.026 NW 3,1 22,5 0,0
26-04-2019 10,9     16,1     22,1 11,2 30 54 69 1.017 1.021 1.024 ENE 6,1 29,0 0,0
25-04-2019 13,2     17,0     21,1 7,9 36 58 78 1.008 1.011 1.017 ENE 12,4 48,3 0,0
24-04-2019 9,6     15,1     21,9 12,3 38 59 76 1.003 1.007 1.010 NE 9,0 33,8 0,0
23-04-2019 9,9     14,5     21,6 11,7 48 77 94 997 999 1.003 ENE 4,5 49,9 1,2
Últims 13 mesos disponibles
04/2019 7,8 10,7 14,1 14,9 15,3 19,5 29,7 21,9 44 67 96 999 1.012 1.024 ENE 6,8 64,4 65,6
03/2019 5,7 8,3 14,8 13,8 12,6 19,4 29,2 23,5 42 60 85 1.010 1.022 1.029 W 3,9 53,1 18,2
02/2019 1,8 5,8 10,8 11,3 13,0 17,7 25,7 23,9 33 65 79 993 1.024 1.033 W 4,1 61,2 0,0
01/2019 -0,1 4,8 11,5 10,5 12,3 16,8 21,1 21,2 42 59 79 1.001 1.018 1.030 ENE 4,0 56,3 0,6
12/2018 3,2 7,5 11,6 12,1 14,4 18,6 24,2 21,0 49 71 85 1.007 1.024 1.030 ENE 2,6 46,7 13,6
11/2018 5,4 10,5 15,8 14,1 14,5 18,5 24,3 18,9 54 74 93 1.001 1.014 1.023 ENE 4,4 57,9 139,0
10/2018 6,8 14,2 17,9 18,1 13,7 22,6 27,8 21,0 43 72 92 999 1.014 1.025 W 3,6 45,1 218,4
09/2018 15,4 20,0 22,9 23,8 23,7 27,6 30,8 15,4 57 77 86 1.012 1.019 1.028 W 3,4 37,0 57,8
08/2018 19,9 22,7 24,8 26,6 26,8 30,2 35,9 16,0 52 70 79 1.012 1.016 1.021 W 4,0 48,3 11,0
07/2018 19,8 21,9 23,9 26,1 27,4 29,9 36,1 16,3 W 4,6 45,1 0,0
06/2018 14,2 18,6 22,4 23,0 23,1 26,8 30,8 16,6 W 4,9 38,6 66,8
05/2018 7,9 14,0 17,4 18,4 17,0 23,0 27,1 19,2 W 4,4 43,5 15,6
04/2018 6,8 11,3 15,6 15,8 14,2 20,4 25,9 19,1 ENE 6,7 61,2 26,0
Tots els anys disponibles
2018 1,3 13,5 24,8 17,8 8,7 22,4 36,1 34,8 W 4,7 67,6 667,4
2017 0,6 13,6 29,2 17,9 8,2 22,4 36,4 35,8 ENE 4,3 62,8 317,4
Temperatura (°C)
Humitat relativa (%)
Velocitat del vent i ràfega màxima (km/h)
Direcció del vent (°)
Pressió (hPa)
Precipitació (mm)
Nota sobre les dades: s'avisa a l'usuari de la provisionalitat i no oficialitat d'aquestes dades
Logo AVAMET blanc
Web allotjada a Sollutia
Llicència de Creative CommonsLa web d'AVAMET i els seus continguts estan subjectes a una llicència de
Reconeixement - No Comercial - Compartir igual
Properes estacions: Altea - Club Nàutic d'Altea (Soci), Ontinyent - El Pilar (Soci), Ares del Maestrat (Ajuntament Soci), Catadau - L'Altet (Inforatge)     - - - - -      Últimes estacions: Jacarilla - centro (MeteOrihuela), Elx - Maitino/Vallverda/Velarde/Matola/Ferriol (Soci TiempoElche.com), Orihuela - Playa Flamenca (MeteOrihuela), Puçol - Ciutat Jardí (Soci), Alzira - La Casella (Soci) - - -